Time;durP1;ratioP1;P1;durP2;ratioP2;P2;SDS_P1;SDS_P2;PMS_P1;PMS_P2;Temp;Humidity;BMP_temperature;BMP_pressure;BME280_temperature;BME280_humidity;BME280_pressure;Samples;Min_cycle;Max_cycle;Signal;HPM_P1;HPM_P2
2021/05/21 00:00:35;;;;;;;4.32;0.63;;;;;;;;;;5022823;28;20185;-70
2021/05/21 00:03:01;;;;;;;5.43;0.80;;;;;;;;;;5025885;28;20210;-70
2021/05/21 00:05:28;;;;;;;6.28;1.00;;;;;;;;;;5018999;28;21369;-68
2021/05/21 00:07:53;;;;;;;4.70;0.95;;;;;;;;;;5025763;28;20189;-69
2021/05/21 00:10:18;;;;;;;1.58;0.77;;;;;;;;;;5019990;28;20463;-70
2021/05/21 00:12:44;;;;;;;2.33;0.57;;;;;;;;;;5027240;28;20201;-70
2021/05/21 00:15:10;;;;;;;1.15;0.70;;;;;;;;;;5019269;28;20210;-67
2021/05/21 00:17:35;;;;;;;2.75;0.70;;;;;;;;;;5029331;28;20205;-69
2021/05/21 00:20:01;;;;;;;4.45;1.00;;;;;;;;;;5018527;28;20186;-69
2021/05/21 00:22:26;;;;;;;3.47;0.70;;;;;;;;;;5028593;28;20174;-67
2021/05/21 00:24:51;;;;;;;4.05;0.70;;;;;;;;;;5031037;28;20193;-68
2021/05/21 00:27:17;;;;;;;4.85;0.70;;;;;;;;;;5024179;28;20274;-68
2021/05/21 00:29:43;;;;;;;1.77;0.70;;;;;;;;;;5028187;28;20192;-69
2021/05/21 00:32:08;;;;;;;3.40;0.63;;;;;;;;;;5023433;28;20185;-69
2021/05/21 00:34:34;;;;;;;2.50;0.80;;;;;;;;;;5033382;28;20661;-68
2021/05/21 00:36:59;;;;;;;4.22;0.70;;;;;;;;;;5024322;28;20229;-69
2021/05/21 00:39:24;;;;;;;2.33;0.63;;;;;;;;;;5029330;28;20686;-70
2021/05/21 00:41:50;;;;;;;0.93;0.60;;;;;;;;;;5023864;28;20284;-69
2021/05/21 00:44:15;;;;;;;2.38;0.80;;;;;;;;;;5027731;28;20285;-67
2021/05/21 00:46:41;;;;;;;4.10;0.82;;;;;;;;;;5023265;28;20267;-69
2021/05/21 00:49:06;;;;;;;2.58;0.60;;;;;;;;;;5026661;28;20316;-69
2021/05/21 00:51:33;;;;;;;2.60;0.93;;;;;;;;;;5032516;28;20227;-70
2021/05/21 00:53:59;;;;;;;4.13;0.90;;;;;;;;;;5024119;28;20678;-68
2021/05/21 00:56:31;;;;;;;1.40;0.60;;;;;;;;;;5031300;28;20192;-68
2021/05/21 00:58:58;;;;;;;1.90;0.75;;;;;;;;;;5023455;28;20213;-70
2021/05/21 01:01:23;;;;;;;4.25;0.80;;;;;;;;;;5029804;28;20202;-69
2021/05/21 01:03:49;;;;;;;2.42;1.02;;;;;;;;;;5023443;28;20680;-69
2021/05/21 01:06:15;;;;;;;4.47;0.90;;;;;;;;;;5029173;28;20555;-68
2021/05/21 01:08:40;;;;;;;3.60;1.20;;;;;;;;;;5022639;28;20290;-70
2021/05/21 01:11:07;;;;;;;2.65;0.95;;;;;;;;;;5029619;28;20197;-68
2021/05/21 01:13:33;;;;;;;4.22;0.75;;;;;;;;;;5023214;28;20197;-68
2021/05/21 01:15:59;;;;;;;2.92;0.73;;;;;;;;;;5030507;28;20771;-70
2021/05/21 01:18:25;;;;;;;2.53;1.00;;;;;;;;;;5023835;28;20217;-68
2021/05/21 01:20:50;;;;;;;3.90;0.80;;;;;;;;;;5029994;28;20683;-68
2021/05/21 01:23:16;;;;;;;1.98;0.80;;;;;;;;;;5027871;28;20201;-70
2021/05/21 01:25:41;;;;;;;1.40;0.70;;;;;;;;;;5024548;28;20533;-71
2021/05/21 01:28:06;;;;;;;0.82;0.52;;;;;;;;;;5031271;28;20216;-69
2021/05/21 01:30:32;;;;;;;2.08;0.90;;;;;;;;;;5020860;28;20204;-68
2021/05/21 01:33:10;;;;;;;2.05;0.80;;;;;;;;;;5028580;28;20204;-69
2021/05/21 01:35:36;;;;;;;2.35;0.68;;;;;;;;;;5021931;28;20200;-70
2021/05/21 01:38:01;;;;;;;3.38;0.70;;;;;;;;;;5032166;28;20586;-69
2021/05/21 01:40:27;;;;;;;2.17;0.82;;;;;;;;;;5021808;28;20552;-68
2021/05/21 01:42:55;;;;;;;4.13;1.10;;;;;;;;;;5031394;28;20198;-69
2021/05/21 01:45:20;;;;;;;2.10;1.00;;;;;;;;;;5021975;28;20205;-69
2021/05/21 01:47:49;;;;;;;3.08;0.80;;;;;;;;;;5029436;28;20210;-69
2021/05/21 01:50:15;;;;;;;2.30;0.88;;;;;;;;;;5022516;28;20559;-68
2021/05/21 01:52:40;;;;;;;4.43;0.77;;;;;;;;;;5030624;28;20541;-69
2021/05/21 01:55:06;;;;;;;3.38;0.70;;;;;;;;;;5022593;28;20216;-69
2021/05/21 01:57:35;;;;;;;1.33;0.80;;;;;;;;;;5030984;28;20233;-67
2021/05/21 02:00:01;;;;;;;2.58;1.02;;;;;;;;;;5028005;28;20569;-68
2021/05/21 02:02:26;;;;;;;3.88;0.80;;;;;;;;;;5022490;28;20205;-68
2021/05/21 02:04:51;;;;;;;3.22;0.88;;;;;;;;;;5029763;28;20319;-70
2021/05/21 02:07:18;;;;;;;3.97;0.80;;;;;;;;;;5021113;28;20715;-69
2021/05/21 02:09:58;;;;;;;2.17;0.90;;;;;;;;;;5028778;28;20687;-68
2021/05/21 02:12:24;;;;;;;2.17;1.00;;;;;;;;;;5021642;28;20212;-68
2021/05/21 02:14:51;;;;;;;3.10;0.77;;;;;;;;;;5028570;28;20212;-67
2021/05/21 02:17:16;;;;;;;3.13;0.75;;;;;;;;;;5023653;28;20626;-68
2021/05/21 02:19:41;;;;;;;1.40;0.70;;;;;;;;;;5029576;28;20220;-68
2021/05/21 02:22:07;;;;;;;1.23;0.70;;;;;;;;;;5023564;28;20473;-68
2021/05/21 02:24:34;;;;;;;3.17;0.85;;;;;;;;;;5028871;28;20264;-68
2021/05/21 02:26:59;;;;;;;0.85;0.70;;;;;;;;;;5020113;28;20194;-68
2021/05/21 02:29:25;;;;;;;4.60;0.98;;;;;;;;;;5029266;28;20536;-70
2021/05/21 02:31:50;;;;;;;4.10;0.90;;;;;;;;;;5026902;28;20207;-68
2021/05/21 02:34:16;;;;;;;0.90;0.80;;;;;;;;;;5017993;28;20612;-68
2021/05/21 02:36:41;;;;;;;2.55;1.08;;;;;;;;;;5027486;28;20198;-68
2021/05/21 02:39:07;;;;;;;4.05;0.88;;;;;;;;;;5019856;28;20201;-67
2021/05/21 02:41:32;;;;;;;4.40;0.75;;;;;;;;;;5030416;28;20703;-68
2021/05/21 02:43:57;;;;;;;4.07;0.98;;;;;;;;;;5018533;28;20181;-68
2021/05/21 02:46:23;;;;;;;2.95;0.88;;;;;;;;;;5028316;28;20185;-70
2021/05/21 02:48:48;;;;;;;2.28;0.95;;;;;;;;;;5020060;28;20222;-67
2021/05/21 02:51:13;;;;;;;1.85;0.93;;;;;;;;;;5026691;28;20617;-68
2021/05/21 02:53:39;;;;;;;3.03;0.68;;;;;;;;;;5022040;28;20614;-69
2021/05/21 02:56:04;;;;;;;4.82;1.30;;;;;;;;;;5028501;28;20186;-69
2021/05/21 02:58:30;;;;;;;4.50;1.25;;;;;;;;;;5019884;28;20233;-67
2021/05/21 03:00:55;;;;;;;3.80;0.80;;;;;;;;;;5030842;28;20599;-67
2021/05/21 03:03:20;;;;;;;2.55;1.00;;;;;;;;;;5026418;28;20190;-68
2021/05/21 03:05:46;;;;;;;4.32;1.02;;;;;;;;;;5019155;28;20198;-68
2021/05/21 03:08:12;;;;;;;1.17;0.70;;;;;;;;;;5026169;28;20180;-69
2021/05/21 03:10:37;;;;;;;2.83;0.90;;;;;;;;;;5021091;28;20579;-68
2021/05/21 03:13:03;;;;;;;2.58;0.80;;;;;;;;;;5025207;28;20192;-67
2021/05/21 03:15:29;;;;;;;3.60;0.80;;;;;;;;;;5020609;28;20189;-68
2021/05/21 03:17:55;;;;;;;2.97;1.10;;;;;;;;;;5028550;28;20206;-67
2021/05/21 03:20:21;;;;;;;6.10;1.13;;;;;;;;;;5020469;28;20197;-68
2021/05/21 03:22:46;;;;;;;2.70;1.00;;;;;;;;;;5029063;28;20254;-67
2021/05/21 03:25:12;;;;;;;2.30;0.95;;;;;;;;;;5018756;28;20726;-69
2021/05/21 03:27:38;;;;;;;2.00;1.20;;;;;;;;;;5029296;28;20196;-68
2021/05/21 03:30:06;;;;;;;2.92;1.30;;;;;;;;;;5022059;28;20613;-70
2021/05/21 03:32:32;;;;;;;4.38;1.10;;;;;;;;;;5028466;28;20181;-70
2021/05/21 03:34:57;;;;;;;4.35;1.30;;;;;;;;;;5025443;28;20208;-69
2021/05/21 03:37:22;;;;;;;7.15;1.50;;;;;;;;;;5021960;28;20349;-69
2021/05/21 03:39:48;;;;;;;4.63;1.83;;;;;;;;;;5026298;28;20299;-72
2021/05/21 03:42:13;;;;;;;5.05;1.80;;;;;;;;;;5016494;28;20189;-70
2021/05/21 03:44:39;;;;;;;13.15;2.30;;;;;;;;;;5026971;28;20657;-70
2021/05/21 03:47:05;;;;;;;12.23;2.97;;;;;;;;;;5018451;28;20285;-70
2021/05/21 03:49:31;;;;;;;15.45;2.35;;;;;;;;;;5027078;28;20696;-72
2021/05/21 03:51:58;;;;;;;18.40;3.47;;;;;;;;;;5019722;28;20193;-71
2021/05/21 03:54:23;;;;;;;15.73;2.45;;;;;;;;;;5027568;28;21465;-73
2021/05/21 03:56:50;;;;;;;13.77;2.60;;;;;;;;;;5022614;28;20793;-74
2021/05/21 03:59:16;;;;;;;17.10;2.97;;;;;;;;;;5031318;28;20303;-74
2021/05/21 04:01:43;;;;;;;21.33;2.72;;;;;;;;;;5031309;28;20568;-71
2021/05/21 04:04:08;;;;;;;14.82;2.47;;;;;;;;;;5024969;28;20209;-70
2021/05/21 04:06:34;;;;;;;18.52;3.05;;;;;;;;;;5032120;28;20193;-69
2021/05/21 04:08:59;;;;;;;16.75;2.72;;;;;;;;;;5025715;28;20552;-70
2021/05/21 04:11:25;;;;;;;17.55;3.08;;;;;;;;;;5031227;28;20189;-69
2021/05/21 04:13:50;;;;;;;11.82;2.50;;;;;;;;;;5022879;28;20203;-71
2021/05/21 04:16:16;;;;;;;20.63;3.13;;;;;;;;;;5032819;28;20182;-71
2021/05/21 04:18:41;;;;;;;18.85;3.17;;;;;;;;;;5022457;28;20222;-71
2021/05/21 04:21:07;;;;;;;16.13;2.80;;;;;;;;;;5030414;28;20572;-70
2021/05/21 04:23:32;;;;;;;18.15;3.03;;;;;;;;;;5022466;28;20193;-72
2021/05/21 04:25:59;;;;;;;20.08;3.83;;;;;;;;;;5028185;28;20193;-71
2021/05/21 04:28:24;;;;;;;20.02;3.00;;;;;;;;;;5022370;28;20189;-70
2021/05/21 04:30:51;;;;;;;18.42;3.10;;;;;;;;;;5031201;28;20196;-71
2021/05/21 04:33:17;;;;;;;16.83;2.85;;;;;;;;;;5028582;28;20429;-69
2021/05/21 04:35:42;;;;;;;18.40;3.67;;;;;;;;;;5023687;28;20182;-69
2021/05/21 04:38:07;;;;;;;22.17;3.33;;;;;;;;;;5026739;28;20216;-70
2021/05/21 04:40:33;;;;;;;15.68;2.50;;;;;;;;;;5021146;28;20201;-71
2021/05/21 04:42:58;;;;;;;18.05;2.85;;;;;;;;;;5029549;28;20198;-70
2021/05/21 04:45:23;;;;;;;15.63;2.97;;;;;;;;;;5023961;28;20198;-69
2021/05/21 04:47:49;;;;;;;15.75;3.42;;;;;;;;;;5028521;28;20267;-70
2021/05/21 04:50:14;;;;;;;22.17;3.63;;;;;;;;;;5021845;28;20194;-70
2021/05/21 04:52:40;;;;;;;17.65;3.15;;;;;;;;;;5031232;28;20556;-71
2021/05/21 04:55:05;;;;;;;14.77;2.72;;;;;;;;;;5022631;28;20190;-71
2021/05/21 04:57:33;;;;;;;14.00;2.80;;;;;;;;;;4425560;28;10001952;-69
2021/05/21 04:59:59;;;;;;;25.77;3.50;;;;;;;;;;5023813;28;20205;-71
2021/05/21 05:02:24;;;;;;;23.30;3.47;;;;;;;;;;5029112;28;20229;-72
2021/05/21 05:04:49;;;;;;;15.25;2.90;;;;;;;;;;5025028;28;20259;-72
2021/05/21 05:07:15;;;;;;;16.23;2.60;;;;;;;;;;5017371;28;20193;-70
2021/05/21 05:09:40;;;;;;;16.25;3.08;;;;;;;;;;5025083;28;20243;-70
2021/05/21 05:12:06;;;;;;;20.90;2.97;;;;;;;;;;5014444;28;20927;-70
2021/05/21 05:14:31;;;;;;;19.15;3.20;;;;;;;;;;5025546;28;20204;-68
2021/05/21 05:16:56;;;;;;;15.90;2.92;;;;;;;;;;5017936;28;20217;-68
2021/05/21 05:19:22;;;;;;;16.05;3.63;;;;;;;;;;5022683;28;20200;-69
2021/05/21 05:21:48;;;;;;;14.93;3.30;;;;;;;;;;5015551;28;20197;-71
2021/05/21 05:24:18;;;;;;;12.57;3.17;;;;;;;;;;5024708;28;20626;-71
2021/05/21 05:26:45;;;;;;;11.00;2.58;;;;;;;;;;5017565;28;20606;-69
2021/05/21 05:29:10;;;;;;;24.30;3.10;;;;;;;;;;5024482;28;20198;-69
2021/05/21 05:31:37;;;;;;;18.08;3.50;;;;;;;;;;5018614;28;20193;-69
2021/05/21 05:34:03;;;;;;;23.67;3.08;;;;;;;;;;5023703;28;20662;-69
2021/05/21 05:36:28;;;;;;;16.77;2.90;;;;;;;;;;5026540;28;20197;-69
2021/05/21 05:38:53;;;;;;;16.20;2.83;;;;;;;;;;5019741;28;20186;-66
2021/05/21 05:41:19;;;;;;;15.57;2.70;;;;;;;;;;5028141;28;20217;-70
2021/05/21 05:43:44;;;;;;;20.33;2.90;;;;;;;;;;5019479;28;20209;-69
2021/05/21 05:46:10;;;;;;;17.35;3.47;;;;;;;;;;5030066;28;20273;-69
2021/05/21 05:48:37;;;;;;;12.77;2.85;;;;;;;;;;5023112;28;20253;-69
2021/05/21 05:51:03;;;;;;;15.65;2.90;;;;;;;;;;5029377;28;20295;-72
2021/05/21 05:53:36;;;;;;;18.17;3.58;;;;;;;;;;5020001;28;20206;-70
2021/05/21 05:56:03;;;;;;;24.52;2.92;;;;;;;;;;5027242;28;20197;-68
2021/05/21 05:58:36;;;;;;;12.11;3.36;;;;;;;;;;4954263;28;10000382;-70
2021/05/21 06:01:02;;;;;;;20.90;3.40;;;;;;;;;;5023427;28;20546;-68
2021/05/21 06:03:29;;;;;;;15.07;2.45;;;;;;;;;;5016270;28;20209;-70
2021/05/21 06:05:55;;;;;;;25.40;4.50;;;;;;;;;;5024802;28;20683;-69
2021/05/21 06:08:20;;;;;;;18.92;3.10;;;;;;;;;;5022116;28;21300;-68
2021/05/21 06:10:46;;;;;;;13.25;2.33;;;;;;;;;;5019535;28;21614;-70
2021/05/21 06:13:11;;;;;;;17.67;2.60;;;;;;;;;;5025538;28;20615;-68
2021/05/21 06:15:38;;;;;;;13.60;2.60;;;;;;;;;;5018944;28;20189;-69
2021/05/21 06:18:05;;;;;;;17.90;2.58;;;;;;;;;;5026670;28;20218;-69
2021/05/21 06:20:32;;;;;;;16.58;2.42;;;;;;;;;;5022575;28;20205;-68
2021/05/21 06:22:58;;;;;;;13.38;2.67;;;;;;;;;;5030906;28;20276;-68
2021/05/21 06:26:11;;;;;;;12.25;2.53;;;;;;;;;;5018625;28;20649;-68
2021/05/21 06:28:10;;;;;;;17.50;3.20;;;;;;;;;;5032093;28;20297;-69
2021/05/21 06:30:35;;;;;;;19.60;3.05;;;;;;;;;;5022217;28;20236;-69
2021/05/21 06:33:01;;;;;;;13.93;3.05;;;;;;;;;;5026864;28;20193;-70
2021/05/21 06:35:27;;;;;;;17.05;3.05;;;;;;;;;;5018129;28;20850;-69
2021/05/21 06:37:53;;;;;;;15.80;3.72;;;;;;;;;;5027513;28;20214;-71
2021/05/21 06:40:19;;;;;;;17.45;2.60;;;;;;;;;;5021369;28;20188;-70
2021/05/21 06:42:45;;;;;;;12.95;2.90;;;;;;;;;;5030918;28;20189;-69
2021/05/21 06:45:12;;;;;;;10.95;3.30;;;;;;;;;;5025170;28;20233;-71
2021/05/21 06:47:37;;;;;;;12.95;2.35;;;;;;;;;;5019877;28;20224;-70
2021/05/21 06:50:04;;;;;;;16.95;2.95;;;;;;;;;;5026121;28;20503;-68
2021/05/21 06:52:29;;;;;;;16.40;3.00;;;;;;;;;;5019638;28;20197;-69
2021/05/21 06:54:55;;;;;;;15.25;2.65;;;;;;;;;;5026644;28;20247;-70
2021/05/21 06:57:20;;;;;;;20.02;3.45;;;;;;;;;;5019064;28;20209;-69
2021/05/21 06:59:46;;;;;;;16.10;2.47;;;;;;;;;;5028047;28;20662;-69
2021/05/21 07:02:11;;;;;;;13.35;2.53;;;;;;;;;;5017495;28;20697;-70
2021/05/21 07:04:36;;;;;;;20.92;2.95;;;;;;;;;;5029521;28;20268;-71
2021/05/21 07:07:02;;;;;;;18.02;2.88;;;;;;;;;;5018928;28;20210;-69
2021/05/21 07:09:27;;;;;;;21.35;3.88;;;;;;;;;;5028539;28;20186;-69
2021/05/21 07:11:53;;;;;;;13.70;2.70;;;;;;;;;;5024441;28;20285;-70
2021/05/21 07:14:18;;;;;;;12.68;2.53;;;;;;;;;;5026154;28;20629;-69
2021/05/21 07:16:44;;;;;;;14.48;2.97;;;;;;;;;;5026410;28;20200;-69
2021/05/21 07:19:13;;;;;;;10.35;2.15;;;;;;;;;;5020415;28;20560;-70
2021/05/21 07:21:38;;;;;;;15.48;2.67;;;;;;;;;;5029946;28;20200;-68
2021/05/21 07:24:04;;;;;;;17.75;2.88;;;;;;;;;;5021080;28;20189;-68
2021/05/21 07:26:31;;;;;;;10.85;2.10;;;;;;;;;;5027394;28;20258;-69
2021/05/21 07:28:57;;;;;;;23.85;3.58;;;;;;;;;;5021185;28;20182;-68
2021/05/21 07:31:26;;;;;;;16.23;2.53;;;;;;;;;;5030641;28;20199;-69
2021/05/21 07:33:52;;;;;;;17.70;2.35;;;;;;;;;;5022664;28;20193;-70
2021/05/21 07:36:17;;;;;;;9.43;1.90;;;;;;;;;;5027381;28;20198;-69
2021/05/21 07:38:42;;;;;;;9.77;1.92;;;;;;;;;;5020797;28;21611;-68
2021/05/21 07:41:08;;;;;;;12.52;2.08;;;;;;;;;;5028548;28;20220;-69
2021/05/21 07:43:33;;;;;;;13.60;2.45;;;;;;;;;;5026504;28;20264;-72
2021/05/21 07:45:59;;;;;;;12.23;2.35;;;;;;;;;;5025262;28;20243;-70
2021/05/21 07:48:26;;;;;;;10.40;2.10;;;;;;;;;;5028458;28;20757;-68
2021/05/21 07:50:52;;;;;;;16.17;2.20;;;;;;;;;;5020769;28;20303;-69
2021/05/21 07:53:17;;;;;;;16.42;2.42;;;;;;;;;;5030021;28;20193;-69
2021/05/21 07:55:44;;;;;;;12.57;2.33;;;;;;;;;;5021059;28;20193;-68
2021/05/21 07:58:11;;;;;;;9.07;1.60;;;;;;;;;;5028030;28;20212;-68
2021/05/21 08:00:36;;;;;;;13.40;2.33;;;;;;;;;;5020351;28;20697;-67
2021/05/21 08:03:02;;;;;;;14.50;2.13;;;;;;;;;;5025684;28;20312;-68
2021/05/21 08:05:27;;;;;;;11.43;2.20;;;;;;;;;;5019564;28;20193;-69
2021/05/21 08:07:53;;;;;;;14.02;2.25;;;;;;;;;;5026223;28;20540;-67
2021/05/21 08:10:18;;;;;;;14.20;2.00;;;;;;;;;;5020770;28;20202;-67
2021/05/21 08:12:43;;;;;;;12.57;2.90;;;;;;;;;;5027878;28;20181;-68
2021/05/21 08:15:09;;;;;;;14.20;2.40;;;;;;;;;;5029028;28;20269;-67
2021/05/21 08:17:35;;;;;;;12.70;2.42;;;;;;;;;;5018328;28;20308;-69
2021/05/21 08:20:02;;;;;;;6.90;2.05;;;;;;;;;;5027239;28;20182;-68
2021/05/21 08:22:28;;;;;;;14.18;2.38;;;;;;;;;;5023345;28;20193;-67
2021/05/21 08:24:54;;;;;;;16.90;2.60;;;;;;;;;;5028197;28;20197;-68
2021/05/21 08:27:19;;;;;;;12.52;2.65;;;;;;;;;;5020826;28;20186;-69
2021/05/21 08:29:45;;;;;;;12.38;2.45;;;;;;;;;;5028274;28;20608;-68
2021/05/21 08:32:10;;;;;;;9.10;2.70;;;;;;;;;;5020811;28;20194;-68
2021/05/21 08:34:35;;;;;;;12.40;2.65;;;;;;;;;;5027396;28;20212;-69
2021/05/21 08:37:01;;;;;;;16.60;3.90;;;;;;;;;;5020398;28;20356;-67
2021/05/21 08:39:27;;;;;;;16.00;2.78;;;;;;;;;;5027724;28;20269;-69
2021/05/21 08:41:54;;;;;;;10.95;2.42;;;;;;;;;;5021198;28;20185;-68
2021/05/21 08:44:21;;;;;;;11.63;2.60;;;;;;;;;;5030184;28;20240;-69
2021/05/21 08:46:46;;;;;;;14.52;3.00;;;;;;;;;;5028746;28;20190;-67
2021/05/21 08:49:13;;;;;;;16.58;2.38;;;;;;;;;;5024131;28;20324;-68
2021/05/21 08:51:39;;;;;;;13.10;3.13;;;;;;;;;;5031858;28;20213;-70
2021/05/21 08:54:06;;;;;;;10.38;2.35;;;;;;;;;;5021829;28;20496;-67
2021/05/21 08:56:32;;;;;;;15.68;3.20;;;;;;;;;;5030905;28;20209;-68
2021/05/21 08:58:58;;;;;;;10.70;2.30;;;;;;;;;;5023677;28;20203;-67
2021/05/21 09:01:26;;;;;;;13.80;2.45;;;;;;;;;;5028284;28;20213;-66
2021/05/21 09:04:01;;;;;;;10.18;2.47;;;;;;;;;;5025527;28;20661;-68
2021/05/21 09:06:28;;;;;;;14.60;2.38;;;;;;;;;;5029021;28;20553;-68
2021/05/21 09:08:58;;;;;;;7.82;1.50;;;;;;;;;;5014935;28;20228;-69
2021/05/21 09:11:34;;;;;;;5.88;1.15;;;;;;;;;;5031336;28;20189;-69
2021/05/21 09:14:10;;;;;;;5.57;1.27;;;;;;;;;;5025104;28;20189;-66
2021/05/21 09:16:38;;;;;;;3.88;1.10;;;;;;;;;;5032225;28;20201;-71
2021/05/21 09:19:25;;;;;;;9.45;1.25;;;;;;;;;;5023913;28;20195;-71
2021/05/21 09:22:03;;;;;;;6.03;1.25;;;;;;;;;;5030687;28;20238;-69
2021/05/21 09:24:43;;;;;;;9.52;1.35;;;;;;;;;;5021927;28;20659;-71
2021/05/21 09:27:09;;;;;;;5.22;1.40;;;;;;;;;;5030134;28;20180;-68
2021/05/21 09:29:45;;;;;;;11.30;2.00;;;;;;;;;;5024401;28;20194;-69
2021/05/21 09:32:31;;;;;;;7.75;1.70;;;;;;;;;;5028170;28;20192;-70
2021/05/21 09:35:13;;;;;;;5.57;1.63;;;;;;;;;;5023377;28;20190;-69
2021/05/21 09:37:48;;;;;;;9.65;1.55;;;;;;;;;;5029757;28;20276;-69
2021/05/21 09:40:15;;;;;;;6.55;1.50;;;;;;;;;;5022239;28;20184;-67
2021/05/21 09:43:01;;;;;;;9.50;2.15;;;;;;;;;;5030986;28;20185;-67
2021/05/21 09:45:40;;;;;;;8.75;1.83;;;;;;;;;;5020903;28;20189;-72
2021/05/21 09:48:08;;;;;;;9.07;1.60;;;;;;;;;;5028850;28;20233;-68
2021/05/21 09:50:34;;;;;;;8.55;1.88;;;;;;;;;;5021067;28;21472;-70
2021/05/21 09:53:10;;;;;;;10.02;2.42;;;;;;;;;;5030739;28;22129;-71
2021/05/21 09:55:55;;;;;;;9.90;2.15;;;;;;;;;;5023378;28;20221;-69
2021/05/21 09:58:34;;;;;;;8.18;2.25;;;;;;;;;;5030169;28;20209;-68
2021/05/21 10:01:20;;;;;;;10.60;1.20;;;;;;;;;;5018045;28;20197;-69
2021/05/21 10:03:57;;;;;;;11.68;1.90;;;;;;;;;;5028333;28;20178;-71
2021/05/21 10:06:24;;;;;;;8.00;1.48;;;;;;;;;;5021593;28;20723;-72
2021/05/21 10:08:52;;;;;;;9.07;1.48;;;;;;;;;;5030368;28;20182;-68
2021/05/21 10:11:18;;;;;;;9.73;1.50;;;;;;;;;;5027341;28;20194;-69
2021/05/21 10:13:45;;;;;;;11.55;1.73;;;;;;;;;;5020961;28;20201;-72
2021/05/21 10:16:12;;;;;;;6.45;1.60;;;;;;;;;;5027391;28;20268;-70
2021/05/21 10:18:42;;;;;;;13.48;2.10;;;;;;;;;;5023726;28;20232;-69
2021/05/21 10:21:09;;;;;;;9.50;1.90;;;;;;;;;;5028178;28;20590;-71
2021/05/21 10:23:42;;;;;;;7.65;1.88;;;;;;;;;;5021916;28;20194;-70
2021/05/21 10:26:21;;;;;;;6.75;1.38;;;;;;;;;;5027894;28;20284;-68
2021/05/21 10:28:49;;;;;;;6.38;1.58;;;;;;;;;;5021832;28;20194;-70
2021/05/21 10:31:17;;;;;;;5.97;1.38;;;;;;;;;;5030084;28;20364;-69
2021/05/21 10:33:43;;;;;;;4.80;1.73;;;;;;;;;;5021005;28;20178;-68
2021/05/21 10:36:14;;;;;;;6.75;1.30;;;;;;;;;;5026711;28;20717;-69
2021/05/21 10:39:03;;;;;;;4.97;1.33;;;;;;;;;;5024162;28;20575;-68
2021/05/21 10:41:30;;;;;;;7.30;1.30;;;;;;;;;;5028980;28;20196;-70
2021/05/21 10:43:58;;;;;;;6.65;1.15;;;;;;;;;;5021177;28;20197;-69
2021/05/21 10:46:25;;;;;;;5.72;1.35;;;;;;;;;;5028749;28;20263;-68
2021/05/21 10:48:55;;;;;;;6.00;1.20;;;;;;;;;;5019472;28;20284;-68
2021/05/21 10:51:22;;;;;;;6.43;1.33;;;;;;;;;;5029196;28;20256;-70
2021/05/21 10:53:47;;;;;;;6.75;1.70;;;;;;;;;;5021490;28;20243;-71
2021/05/21 10:56:16;;;;;;;6.20;1.50;;;;;;;;;;5028986;28;20268;-69
2021/05/21 10:58:46;;;;;;;11.07;1.80;;;;;;;;;;5028322;28;20209;-69
2021/05/21 11:01:14;;;;;;;11.60;2.35;;;;;;;;;;5021155;28;20233;-69
2021/05/21 11:03:55;;;;;;;11.45;2.30;;;;;;;;;;5030181;28;20354;-68
2021/05/21 11:06:22;;;;;;;14.07;2.15;;;;;;;;;;5018964;28;20485;-67
2021/05/21 11:08:47;;;;;;;11.73;2.45;;;;;;;;;;5029223;28;20245;-68
2021/05/21 11:11:14;;;;;;;9.63;2.65;;;;;;;;;;5022073;28;20189;-70
2021/05/21 11:13:40;;;;;;;11.93;3.00;;;;;;;;;;5030557;28;20536;-67
2021/05/21 11:16:11;;;;;;;13.88;2.63;;;;;;;;;;5020049;28;20189;-69
2021/05/21 11:18:47;;;;;;;6.93;1.70;;;;;;;;;;5028149;28;20296;-68
2021/05/21 11:21:17;;;;;;;8.38;1.77;;;;;;;;;;5021357;28;20347;-68
2021/05/21 11:23:45;;;;;;;5.50;1.02;;;;;;;;;;5030622;28;20193;-69
2021/05/21 11:26:12;;;;;;;7.22;1.65;;;;;;;;;;5019395;28;20229;-67
2021/05/21 11:28:40;;;;;;;7.70;1.40;;;;;;;;;;5030595;28;20190;-70
2021/05/21 11:31:13;;;;;;;7.90;1.75;;;;;;;;;;5020845;28;20239;-67
2021/05/21 11:33:38;;;;;;;7.30;1.50;;;;;;;;;;5028513;28;20197;-68
2021/05/21 11:36:06;;;;;;;8.32;1.85;;;;;;;;;;5019567;28;20202;-71
2021/05/21 11:38:31;;;;;;;7.32;1.85;;;;;;;;;;5028740;28;20676;-71
2021/05/21 11:40:57;;;;;;;7.22;1.85;;;;;;;;;;5029093;28;20192;-67
2021/05/21 11:43:26;;;;;;;11.68;2.03;;;;;;;;;;5020284;28;20282;-69
2021/05/21 11:45:53;;;;;;;9.35;1.95;;;;;;;;;;5029667;28;21337;-68
2021/05/21 11:48:31;;;;;;;12.23;2.53;;;;;;;;;;5021392;28;20225;-67
2021/05/21 11:50:58;;;;;;;7.65;2.10;;;;;;;;;;5029009;28;20198;-67
2021/05/21 11:53:23;;;;;;;6.47;1.70;;;;;;;;;;5020355;28;20186;-69
2021/05/21 11:55:50;;;;;;;7.65;1.80;;;;;;;;;;5029922;28;20188;-68
2021/05/21 11:58:23;;;;;;;8.57;1.70;;;;;;;;;;5020406;28;20232;-68
2021/05/21 12:01:06;;;;;;;8.18;1.77;;;;;;;;;;5026525;28;20644;-68
2021/05/21 12:03:36;;;;;;;7.53;1.98;;;;;;;;;;5016016;28;20189;-67
2021/05/21 12:06:02;;;;;;;4.35;1.63;;;;;;;;;;5026755;28;23711;-67
2021/05/21 12:08:27;;;;;;;7.40;1.83;;;;;;;;;;5016572;28;20204;-67
2021/05/21 12:10:56;;;;;;;10.20;1.70;;;;;;;;;;5023589;28;20317;-67
2021/05/21 12:13:22;;;;;;;9.68;1.73;;;;;;;;;;5016502;28;20632;-65
2021/05/21 12:15:48;;;;;;;9.27;1.75;;;;;;;;;;5022596;28;20236;-67
2021/05/21 12:18:13;;;;;;;9.75;2.10;;;;;;;;;;5019136;28;20320;-68
2021/05/21 12:20:49;;;;;;;6.97;1.88;;;;;;;;;;5030212;28;20656;-66
2021/05/21 12:23:15;;;;;;;10.45;2.05;;;;;;;;;;5027553;28;20196;-67
2021/05/21 12:25:42;;;;;;;13.27;2.30;;;;;;;;;;5026594;28;20560;-68
2021/05/21 12:28:07;;;;;;;11.18;2.45;;;;;;;;;;5027264;28;20248;-69
2021/05/21 12:30:35;;;;;;;8.23;2.40;;;;;;;;;;5021405;28;20264;-67
2021/05/21 12:33:01;;;;;;;10.43;1.90;;;;;;;;;;5027149;28;20174;-69
2021/05/21 12:35:40;;;;;;;9.07;2.05;;;;;;;;;;5018286;28;20190;-70
2021/05/21 12:38:09;;;;;;;9.75;1.90;;;;;;;;;;5029768;28;20209;-70
2021/05/21 12:40:34;;;;;;;11.35;1.83;;;;;;;;;;5021128;28;20592;-70
2021/05/21 12:43:05;;;;;;;11.75;2.20;;;;;;;;;;5030206;28;20339;-69
2021/05/21 12:45:35;;;;;;;13.40;1.90;;;;;;;;;;5024430;28;20201;-71
2021/05/21 12:48:00;;;;;;;9.65;1.85;;;;;;;;;;5028602;28;20241;-72
2021/05/21 12:50:31;;;;;;;8.38;1.80;;;;;;;;;;5024419;28;20228;-70
2021/05/21 12:52:59;;;;;;;8.02;1.70;;;;;;;;;;5025023;28;20186;-71
2021/05/21 12:55:25;;;;;;;6.78;1.50;;;;;;;;;;5019270;28;20198;-71
2021/05/21 12:57:52;;;;;;;6.45;1.63;;;;;;;;;;5028097;28;20194;-71
2021/05/21 13:00:19;;;;;;;8.98;1.67;;;;;;;;;;5022116;28;20202;-71
2021/05/21 13:02:53;;;;;;;9.38;1.80;;;;;;;;;;5035351;28;20596;-69
2021/05/21 13:05:19;;;;;;;8.32;2.10;;;;;;;;;;5040554;28;20602;-69
2021/05/21 13:07:56;;;;;;;11.45;2.05;;;;;;;;;;5028599;28;20178;-69
2021/05/21 13:10:23;;;;;;;10.27;2.03;;;;;;;;;;5036009;28;20227;-68
2021/05/21 13:12:50;;;;;;;11.10;2.05;;;;;;;;;;5034896;28;20190;-69
2021/05/21 13:15:21;;;;;;;8.50;1.80;;;;;;;;;;5037995;28;20221;-68
2021/05/21 13:17:48;;;;;;;6.68;2.30;;;;;;;;;;5028964;28;20759;-69
2021/05/21 13:20:17;;;;;;;12.18;2.13;;;;;;;;;;5032160;28;20189;-70
2021/05/21 13:23:02;;;;;;;10.70;2.15;;;;;;;;;;5025786;28;20731;-68
2021/05/21 13:25:30;;;;;;;9.02;1.92;;;;;;;;;;5036568;28;20849;-69
2021/05/21 13:27:59;;;;;;;10.43;2.33;;;;;;;;;;5028253;28;20587;-69
2021/05/21 13:30:25;;;;;;;8.75;2.25;;;;;;;;;;5032789;28;20197;-68
2021/05/21 13:32:51;;;;;;;10.27;2.72;;;;;;;;;;5031278;28;20202;-71
2021/05/21 13:35:17;;;;;;;10.13;2.05;;;;;;;;;;5037524;28;20184;-67
2021/05/21 13:37:43;;;;;;;11.40;2.42;;;;;;;;;;5034409;28;20243;-71
2021/05/21 13:40:10;;;;;;;11.90;2.35;;;;;;;;;;5038086;28;20217;-68
2021/05/21 13:42:35;;;;;;;7.78;2.08;;;;;;;;;;5031233;28;20276;-67
2021/05/21 13:45:05;;;;;;;12.40;2.47;;;;;;;;;;5037284;28;20552;-69
2021/05/21 13:47:31;;;;;;;10.80;2.30;;;;;;;;;;5048087;28;20248;-67
2021/05/21 13:49:57;;;;;;;11.88;2.38;;;;;;;;;;5029496;28;20239;-68
2021/05/21 13:52:22;;;;;;;10.48;2.65;;;;;;;;;;5038806;28;20189;-67
2021/05/21 13:54:48;;;;;;;15.15;2.63;;;;;;;;;;5030879;28;20586;-66
2021/05/21 13:57:13;;;;;;;14.52;2.55;;;;;;;;;;5036588;28;20734;-69
2021/05/21 13:59:38;;;;;;;10.25;2.85;;;;;;;;;;5029770;28;20190;-69
2021/05/21 14:02:04;;;;;;;7.05;2.05;;;;;;;;;;5036294;28;20267;-70
2021/05/21 14:04:29;;;;;;;16.10;3.00;;;;;;;;;;5029290;28;20280;-68
2021/05/21 14:06:55;;;;;;;12.80;2.30;;;;;;;;;;5034051;28;20182;-71
2021/05/21 14:09:20;;;;;;;12.10;2.50;;;;;;;;;;5023546;28;20883;-68
2021/05/21 14:11:46;;;;;;;10.88;3.05;;;;;;;;;;5038596;28;20595;-72
2021/05/21 14:14:12;;;;;;;13.55;3.03;;;;;;;;;;4338796;28;10000850;-74
2021/05/21 14:16:40;;;;;;;9.30;2.65;;;;;;;;;;5034597;28;20204;-71
2021/05/21 14:19:06;;;;;;;11.07;2.65;;;;;;;;;;5024246;28;20241;-73
2021/05/21 14:21:32;;;;;;;13.45;2.47;;;;;;;;;;5035180;28;20190;-71
2021/05/21 14:24:01;;;;;;;12.38;2.53;;;;;;;;;;5031286;28;20987;-70
2021/05/21 14:26:28;;;;;;;11.73;2.30;;;;;;;;;;5026944;28;20186;-69
2021/05/21 14:28:54;;;;;;;11.50;2.33;;;;;;;;;;5036324;28;20272;-67
2021/05/21 14:31:19;;;;;;;12.52;2.85;;;;;;;;;;5025033;28;20273;-69
2021/05/21 14:33:48;;;;;;;9.13;2.47;;;;;;;;;;5037081;28;20181;-68
2021/05/21 14:36:13;;;;;;;14.38;2.28;;;;;;;;;;5023946;28;20189;-68